Time;durP1;ratioP1;P1;durP2;ratioP2;P2;SDS_P1;SDS_P2;PMS_P1;PMS_P2;Temp;Humidity;BMP_temperature;BMP_pressure;BME280_temperature;BME280_humidity;BME280_pressure;Samples;Min_cycle;Max_cycle;Signal;HPM_P1;HPM_P2
2023/09/25 00:02:14;;;;;;;8.05;6.68;;;16.80;61.80;;;;;;5009631;28;116000;-78
2023/09/25 00:04:41;;;;;;;6.90;5.60;;;16.90;61.80;;;;;;5023070;28;114787;-79
2023/09/25 00:07:09;;;;;;;8.32;7.30;;;16.90;61.80;;;;;;5014512;28;114169;-78
2023/09/25 00:09:36;;;;;;;12.38;11.10;;;16.80;61.90;;;;;;5008401;28;114161;-78
2023/09/25 00:12:05;;;;;;;7.70;6.90;;;16.80;62.10;;;;;;5009282;28;114966;-78
2023/09/25 00:14:32;;;;;;;7.28;6.15;;;16.80;61.90;;;;;;5006006;28;114651;-78
2023/09/25 00:16:59;;;;;;;20.75;18.63;;;16.70;61.90;;;;;;5007529;28;114581;-79
2023/09/25 00:19:26;;;;;;;9.73;8.65;;;16.80;62.40;;;;;;5028923;28;114149;-78
2023/09/25 00:21:54;;;;;;;9.32;8.18;;;16.80;61.90;;;;;;5009510;28;115028;-78
2023/09/25 00:24:21;;;;;;;5.88;5.20;;;16.80;61.90;;;;;;5008958;28;115822;-78
2023/09/25 00:26:48;;;;;;;17.05;15.35;;;16.80;61.70;;;;;;5027222;28;114253;-79
2023/09/25 00:29:16;;;;;;;8.82;7.95;;;17.00;61.90;;;;;;5009949;28;114362;-78
2023/09/25 00:31:43;;;;;;;7.85;6.50;;;17.00;61.80;;;;;;5009195;28;114897;-78
2023/09/25 00:34:12;;;;;;;5.97;5.28;;;17.00;61.70;;;;;;4976244;28;115021;-78
2023/09/25 00:36:40;;;;;;;5.50;4.40;;;17.00;61.50;;;;;;4994605;28;114242;-78
2023/09/25 00:39:08;;;;;;;6.07;4.53;;;17.10;61.30;;;;;;5028206;28;114423;-79
2023/09/25 00:41:35;;;;;;;5.15;4.65;;;17.30;61.00;;;;;;4992670;28;114816;-78
2023/09/25 00:44:02;;;;;;;6.63;4.10;;;17.40;60.80;;;;;;5009654;28;114869;-79
2023/09/25 00:46:31;;;;;;;5.10;3.95;;;17.50;60.50;;;;;;4993290;28;114899;-79
2023/09/25 00:48:58;;;;;;;6.65;4.65;;;17.50;60.30;;;;;;5028112;27;114354;-80
2023/09/25 00:51:25;;;;;;;5.40;3.85;;;17.50;60.50;;;;;;5008389;28;114909;-78
2023/09/25 00:53:52;;;;;;;4.68;4.03;;;17.50;60.40;;;;;;5026904;28;114708;-78
2023/09/25 00:56:19;;;;;;;5.35;3.70;;;17.50;60.40;;;;;;5009755;28;114270;-78
2023/09/25 00:58:47;;;;;;;6.18;4.82;;;17.50;60.30;;;;;;4993245;28;114298;-78
2023/09/25 01:01:15;;;;;;;5.07;4.32;;;17.50;60.60;;;;;;4992047;28;115218;-78
2023/09/25 01:03:42;;;;;;;5.97;5.38;;;17.40;60.80;;;;;;5008582;28;114767;-78
2023/09/25 01:06:09;;;;;;;5.78;4.53;;;17.30;61.30;;;;;;5027510;28;114044;-78
2023/09/25 01:08:36;;;;;;;7.90;6.18;;;17.10;61.50;;;;;;5027905;28;114422;-78
2023/09/25 01:11:04;;;;;;;7.90;5.88;;;17.00;62.00;;;;;;5026883;28;114983;-79
2023/09/25 01:13:31;;;;;;;8.93;5.07;;;16.80;62.40;;;;;;5027211;28;114624;-77
2023/09/25 01:15:58;;;;;;;6.20;5.32;;;16.70;62.60;;;;;;5027091;28;114364;-78
2023/09/25 01:18:25;;;;;;;6.40;5.47;;;16.70;62.80;;;;;;5007926;28;114274;-78
2023/09/25 01:20:52;;;;;;;6.18;5.22;;;16.70;62.70;;;;;;5008293;28;115113;-79
2023/09/25 01:23:20;;;;;;;6.63;5.97;;;16.80;62.50;;;;;;5007398;28;114833;-79
2023/09/25 01:25:48;;;;;;;6.80;5.45;;;16.70;62.80;;;;;;5009780;28;114213;-78
2023/09/25 01:28:15;;;;;;;10.98;7.30;;;16.70;62.70;;;;;;5009166;28;114394;-79
2023/09/25 01:30:42;;;;;;;7.65;6.85;;;16.80;62.80;;;;;;5008318;28;115083;-78
2023/09/25 01:33:10;;;;;;;5.78;4.28;;;16.80;62.80;;;;;;5008989;28;115133;-79
2023/09/25 01:35:37;;;;;;;7.25;5.63;;;16.80;62.50;;;;;;5009367;28;114378;-78
2023/09/25 01:38:04;;;;;;;8.18;6.63;;;16.80;62.50;;;;;;5027135;28;114184;-78
2023/09/25 01:40:32;;;;;;;6.95;5.10;;;16.80;62.60;;;;;;5025897;28;114927;-78
2023/09/25 01:42:59;;;;;;;11.68;9.70;;;16.80;62.70;;;;;;4991616;28;114543;-78
2023/09/25 01:45:27;;;;;;;9.52;8.52;;;16.90;62.90;;;;;;5008867;28;114173;-78
2023/09/25 01:47:55;;;;;;;7.25;6.55;;;16.80;62.80;;;;;;5009052;28;114190;-78
2023/09/25 01:50:27;;;;;;;9.43;7.82;;;16.80;62.70;;;;;;5026620;28;114944;-78
2023/09/25 01:52:55;;;;;;;11.35;9.43;;;16.80;62.70;;;;;;4991758;28;114622;-78
2023/09/25 01:55:22;;;;;;;11.00;8.88;;;16.70;62.90;;;;;;4992443;28;114300;-78
2023/09/25 01:57:49;;;;;;;11.07;7.05;;;16.80;63.00;;;;;;4976299;28;114450;-77
2023/09/25 02:00:18;;;;;;;6.90;6.05;;;16.80;62.60;;;;;;4975911;28;114883;-78
2023/09/25 02:02:46;;;;;;;8.18;5.53;;;16.80;62.60;;;;;;5007117;28;114601;-77
2023/09/25 02:05:14;;;;;;;5.80;4.78;;;16.90;62.40;;;;;;5008354;28;114424;-78
2023/09/25 02:07:41;;;;;;;8.80;7.88;;;17.10;62.00;;;;;;5008845;28;114110;-78
2023/09/25 02:10:09;;;;;;;10.45;8.95;;;17.00;62.30;;;;;;5008027;28;115417;-78
2023/09/25 02:12:36;;;;;;;9.00;8.10;;;16.90;62.80;;;;;;5008307;28;114906;-78
2023/09/25 02:15:06;;;;;;;8.50;6.82;;;16.80;62.80;;;;;;5011869;28;114122;-77
2023/09/25 02:17:33;;;;;;;11.00;9.25;;;16.80;62.60;;;;;;5005348;28;114360;-77
2023/09/25 02:20:19;;;;;;;9.50;7.03;;;16.90;62.90;;;;;;5016564;28;115081;-78
2023/09/25 02:22:48;;;;;;;9.50;7.80;;;16.80;62.60;;;;;;5005564;28;116354;-77
2023/09/25 02:25:15;;;;;;;13.30;11.98;;;16.90;62.60;;;;;;4990095;28;114111;-77
2023/09/25 02:27:44;;;;;;;10.57;9.18;;;16.90;63.10;;;;;;4999312;28;114178;-77
2023/09/25 02:30:13;;;;;;;14.18;10.85;;;16.80;63.00;;;;;;4985237;28;115002;-78
2023/09/25 02:32:42;;;;;;;12.45;10.43;;;16.90;63.10;;;;;;5004435;28;114746;-77
2023/09/25 02:35:09;;;;;;;6.53;5.47;;;16.90;62.90;;;;;;5005138;28;114104;-78
2023/09/25 02:37:37;;;;;;;8.30;6.60;;;16.80;62.60;;;;;;5007859;28;114132;-78
2023/09/25 02:40:06;;;;;;;12.52;8.45;;;16.90;62.60;;;;;;5005224;28;115032;-78
2023/09/25 02:42:33;;;;;;;12.23;10.98;;;17.00;62.50;;;;;;4987799;28;114870;-78
2023/09/25 02:45:01;;;;;;;11.45;8.98;;;17.20;62.60;;;;;;5005839;28;114207;-79
2023/09/25 02:47:29;;;;;;;8.20;7.38;;;17.20;62.20;;;;;;5005122;28;114260;-79
2023/09/25 02:49:56;;;;;;;13.60;12.25;;;17.10;62.20;;;;;;5005384;28;114949;-79
2023/09/25 02:52:23;;;;;;;9.82;8.82;;;17.10;62.50;;;;;;5004183;28;114665;-79
2023/09/25 02:54:51;;;;;;;9.05;7.10;;;17.10;62.30;;;;;;5005466;28;114133;-78
2023/09/25 02:57:18;;;;;;;10.07;8.48;;;17.00;62.20;;;;;;4988336;28;114362;-78
2023/09/25 02:59:45;;;;;;;8.98;7.43;;;17.00;62.50;;;;;;5003680;28;115225;-79
2023/09/25 03:02:12;;;;;;;8.75;7.63;;;17.00;62.40;;;;;;5005457;28;115153;-78
2023/09/25 03:04:39;;;;;;;10.48;6.53;;;17.00;62.50;;;;;;4988542;28;114259;-78
2023/09/25 03:07:08;;;;;;;10.13;9.05;;;17.20;62.30;;;;;;5006004;28;114122;-78
2023/09/25 03:09:35;;;;;;;12.38;10.23;;;17.20;62.10;;;;;;5003723;28;115231;-79
2023/09/25 03:12:04;;;;;;;6.68;5.68;;;17.30;62.20;;;;;;5004060;28;114700;-79
2023/09/25 03:14:32;;;;;;;6.30;4.90;;;17.20;61.60;;;;;;5008704;28;114348;-78
2023/09/25 03:16:59;;;;;;;6.97;6.28;;;17.30;61.40;;;;;;5008698;28;114487;-78
2023/09/25 03:19:28;;;;;;;8.77;6.88;;;17.40;61.30;;;;;;5008952;28;116854;-79
2023/09/25 03:21:55;;;;;;;13.27;11.85;;;17.50;61.20;;;;;;5010286;28;117741;-79
2023/09/25 03:24:22;;;;;;;13.23;11.43;;;17.60;61.60;;;;;;5010667;28;114301;-77
2023/09/25 03:26:50;;;;;;;9.77;7.55;;;17.70;61.60;;;;;;5028962;28;114194;-78
2023/09/25 03:29:17;;;;;;;9.10;8.13;;;17.60;61.10;;;;;;5010344;28;115001;-77
2023/09/25 03:31:44;;;;;;;5.07;4.30;;;17.70;61.00;;;;;;5028107;28;115164;-78
2023/09/25 03:34:13;;;;;;;7.43;6.65;;;17.80;60.30;;;;;;4994263;28;114192;-78
2023/09/25 03:36:41;;;;;;;7.78;6.18;;;17.80;60.50;;;;;;5011741;28;114437;-79
2023/09/25 03:39:09;;;;;;;6.97;5.80;;;17.80;60.30;;;;;;5009861;28;114917;-79
2023/09/25 03:41:36;;;;;;;8.73;6.65;;;17.70;60.20;;;;;;4993697;28;115030;-78
2023/09/25 03:44:04;;;;;;;6.95;5.97;;;17.70;60.50;;;;;;5010221;28;114178;-78
2023/09/25 03:46:31;;;;;;;6.57;5.72;;;17.70;60.50;;;;;;5010790;28;114548;-79
2023/09/25 03:49:05;;;;;;;10.55;9.45;;;17.80;60.50;;;;;;5027737;28;115007;-78
2023/09/25 03:51:32;;;;;;;7.72;6.50;;;17.80;60.80;;;;;;5028253;28;114330;-79
2023/09/25 03:54:00;;;;;;;9.70;8.77;;;17.70;60.50;;;;;;5028816;28;114290;-78
2023/09/25 03:56:29;;;;;;;6.93;5.82;;;17.70;60.80;;;;;;5028752;28;114326;-78
2023/09/25 03:58:56;;;;;;;10.43;9.40;;;17.60;60.70;;;;;;5026911;28;116435;-79
2023/09/25 04:01:25;;;;;;;8.70;7.80;;;17.50;61.40;;;;;;5027637;28;115193;-79
2023/09/25 04:03:52;;;;;;;11.30;10.13;;;17.30;61.50;;;;;;4993119;28;114306;-78
2023/09/25 04:06:23;;;;;;;7.70;6.28;;;17.30;62.00;;;;;;5028508;28;114176;-79
2023/09/25 04:08:53;;;;;;;8.88;7.97;;;17.30;61.70;;;;;;5008614;28;115496;-78
2023/09/25 04:11:20;;;;;;;8.63;7.70;;;17.30;61.70;;;;;;5027950;28;114658;-80
2023/09/25 04:13:47;;;;;;;6.47;5.78;;;17.40;61.70;;;;;;5028636;28;114443;-78
2023/09/25 04:16:14;;;;;;;6.22;5.43;;;17.40;61.30;;;;;;5028386;28;114234;-79
2023/09/25 04:18:42;;;;;;;7.80;7.00;;;17.40;61.20;;;;;;5026546;28;115066;-80
2023/09/25 04:21:14;;;;;;;9.10;8.15;;;17.40;61.40;;;;;;5009024;28;118913;-79
2023/09/25 04:23:42;;;;;;;9.48;8.50;;;17.40;61.70;;;;;;4993536;27;114261;-79
2023/09/25 04:26:11;;;;;;;10.27;8.73;;;17.30;61.90;;;;;;4993142;28;114328;-79
2023/09/25 04:28:40;;;;;;;7.03;5.22;;;17.30;62.00;;;;;;5010078;28;115074;-77
2023/09/25 04:31:07;;;;;;;10.23;9.20;;;17.30;61.60;;;;;;5009037;28;117647;-78
2023/09/25 04:33:35;;;;;;;11.45;9.13;;;17.30;62.10;;;;;;5009730;28;114330;-78
2023/09/25 04:36:03;;;;;;;6.72;6.00;;;17.30;62.30;;;;;;5028178;28;114288;-78
2023/09/25 04:38:35;;;;;;;6.43;5.40;;;17.30;62.00;;;;;;5009993;28;114866;-78
2023/09/25 04:41:03;;;;;;;7.50;6.65;;;17.30;61.80;;;;;;5013590;28;114746;-79
2023/09/25 04:43:32;;;;;;;5.93;5.32;;;17.30;62.00;;;;;;5043718;28;114505;-77
2023/09/25 04:46:00;;;;;;;8.40;6.95;;;17.30;61.70;;;;;;5018087;28;114500;-78
2023/09/25 04:48:30;;;;;;;9.77;8.55;;;17.30;61.90;;;;;;4993453;28;114845;-79
2023/09/25 04:50:58;;;;;;;6.50;5.28;;;17.30;62.10;;;;;;5028554;28;114615;-79
2023/09/25 04:53:25;;;;;;;6.88;5.70;;;17.20;62.00;;;;;;5018435;28;114321;-79
2023/09/25 04:55:52;;;;;;;7.60;6.20;;;17.20;61.90;;;;;;5028219;28;113993;-78
2023/09/25 04:58:19;;;;;;;8.05;7.20;;;17.30;61.70;;;;;;5028684;28;115149;-79
2023/09/25 05:00:48;;;;;;;7.63;6.82;;;17.30;61.70;;;;;;5026887;28;114633;-79
2023/09/25 05:03:15;;;;;;;11.40;10.20;;;17.30;61.70;;;;;;4995171;28;114098;-79
2023/09/25 05:05:43;;;;;;;9.63;7.65;;;17.20;62.40;;;;;;5026897;28;114578;-79
2023/09/25 05:08:10;;;;;;;11.65;10.45;;;17.20;62.40;;;;;;5026747;28;114902;-78
2023/09/25 05:10:37;;;;;;;9.90;8.13;;;17.10;63.10;;;;;;5026749;28;114592;-79
2023/09/25 05:13:04;;;;;;;7.70;6.85;;;17.00;62.80;;;;;;5009245;28;114357;-79
2023/09/25 05:15:31;;;;;;;10.90;8.73;;;17.10;62.50;;;;;;5027802;28;114329;-79
2023/09/25 05:17:59;;;;;;;9.35;8.45;;;17.10;63.30;;;;;;5026225;28;114903;-79
2023/09/25 05:20:26;;;;;;;9.50;8.60;;;16.90;63.60;;;;;;5026287;28;114714;-78
2023/09/25 05:22:55;;;;;;;10.10;8.05;;;16.80;63.80;;;;;;5009020;28;114242;-78
2023/09/25 05:25:22;;;;;;;8.18;7.22;;;16.80;64.00;;;;;;5027272;28;114316;-79
2023/09/25 05:27:51;;;;;;;11.52;10.27;;;16.90;63.60;;;;;;5026697;28;115345;-79
2023/09/25 05:30:18;;;;;;;6.28;5.32;;;17.10;63.90;;;;;;4975743;28;115104;-79
2023/09/25 05:32:50;;;;;;;7.20;6.50;;;17.00;62.80;;;;;;5026107;28;114332;-80
2023/09/25 05:35:19;;;;;;;6.85;5.60;;;17.20;62.90;;;;;;5027227;27;114369;-80
2023/09/25 05:37:47;;;;;;;7.88;6.05;;;17.30;62.30;;;;;;5025059;28;114890;-79
2023/09/25 05:40:15;;;;;;;7.90;6.50;;;17.40;62.00;;;;;;5009705;28;114628;-79
2023/09/25 05:42:44;;;;;;;7.28;5.90;;;17.60;61.70;;;;;;4993074;28;114214;-81
2023/09/25 05:45:12;;;;;;;9.18;7.57;;;17.60;61.40;;;;;;5027038;28;114255;-79
2023/09/25 05:47:39;;;;;;;7.55;5.70;;;17.70;61.80;;;;;;5007558;28;115070;-78
2023/09/25 05:50:09;;;;;;;7.90;6.72;;;17.70;61.40;;;;;;5026028;28;114787;-80
2023/09/25 05:52:36;;;;;;;6.32;5.22;;;17.70;61.60;;;;;;4992314;28;114326;-80
2023/09/25 05:55:05;;;;;;;9.25;7.15;;;17.70;61.30;;;;;;5026852;28;114278;-79
2023/09/25 05:57:32;;;;;;;7.93;6.70;;;17.70;61.70;;;;;;5025963;28;114880;-79
2023/09/25 05:59:59;;;;;;;8.35;6.97;;;17.70;61.90;;;;;;5025780;28;114773;-80
2023/09/25 06:02:33;;;;;;;8.30;7.07;;;17.60;61.90;;;;;;5026789;28;114272;-79
2023/09/25 06:05:03;;;;;;;8.50;7.57;;;17.60;62.10;;;;;;5010466;28;114601;-81
2023/09/25 06:07:31;;;;;;;11.27;7.22;;;17.50;62.70;;;;;;4991395;28;115208;-79
2023/09/25 06:09:58;;;;;;;8.98;7.70;;;17.40;62.80;;;;;;5025620;28;114839;-79
2023/09/25 06:12:25;;;;;;;10.07;9.07;;;17.30;63.00;;;;;;5026094;28;114056;-80
2023/09/25 06:14:52;;;;;;;7.85;7.00;;;17.20;63.60;;;;;;5008279;28;114472;-79
2023/09/25 06:17:19;;;;;;;9.68;8.00;;;17.10;63.70;;;;;;5025175;28;114838;-79
2023/09/25 06:19:46;;;;;;;11.63;9.75;;;17.00;64.20;;;;;;5025219;28;114797;-79
2023/09/25 06:22:13;;;;;;;9.32;7.75;;;16.90;64.80;;;;;;5026434;28;114056;-78
2023/09/25 06:24:40;;;;;;;7.38;6.47;;;17.00;64.60;;;;;;5026343;28;114349;-79
2023/09/25 06:27:10;;;;;;;8.48;7.15;;;17.20;64.00;;;;;;5024917;28;115048;-79
2023/09/25 06:29:38;;;;;;;7.38;6.57;;;17.20;64.00;;;;;;5007929;28;114588;-78
2023/09/25 06:32:05;;;;;;;9.48;7.90;;;17.40;63.50;;;;;;5026415;28;114070;-77
2023/09/25 06:34:32;;;;;;;8.20;7.40;;;17.40;63.70;;;;;;5007846;28;114439;-80
2023/09/25 06:36:59;;;;;;;9.43;8.43;;;17.40;63.80;;;;;;5024818;28;115401;-78
2023/09/25 06:39:27;;;;;;;8.57;7.68;;;17.30;64.10;;;;;;5025175;28;114654;-77
2023/09/25 06:41:54;;;;;;;10.95;8.82;;;17.00;64.50;;;;;;5008018;28;114278;-79
2023/09/25 06:44:22;;;;;;;9.85;8.05;;;16.90;65.10;;;;;;5007955;28;114151;-78
2023/09/25 06:46:49;;;;;;;9.98;8.20;;;16.80;65.50;;;;;;5025235;27;114991;-78
2023/09/25 06:49:18;;;;;;;10.30;9.23;;;16.80;65.60;;;;;;5028296;28;114816;-79
2023/09/25 06:51:46;;;;;;;8.18;6.20;;;16.80;65.70;;;;;;5011497;28;114239;-79
2023/09/25 06:54:13;;;;;;;8.02;6.63;;;16.80;65.40;;;;;;5029914;28;114548;-78
2023/09/25 06:56:40;;;;;;;8.60;7.18;;;16.70;65.70;;;;;;5028600;28;115149;-79
2023/09/25 06:59:07;;;;;;;8.32;6.35;;;16.80;65.90;;;;;;5028697;28;114700;-79
2023/09/25 07:01:35;;;;;;;8.95;7.55;;;16.80;65.90;;;;;;5028805;28;114360;-79
2023/09/25 07:04:02;;;;;;;8.70;6.95;;;16.80;66.20;;;;;;5029419;28;114380;-79
2023/09/25 07:06:30;;;;;;;7.57;6.43;;;16.90;65.80;;;;;;4992772;28;117423;-78
2023/09/25 07:08:57;;;;;;;8.50;6.47;;;16.90;65.60;;;;;;5031787;28;114625;-79
2023/09/25 07:11:24;;;;;;;9.95;7.30;;;16.90;65.60;;;;;;5020273;28;114186;-80
2023/09/25 07:13:52;;;;;;;7.55;5.85;;;17.00;65.50;;;;;;5043781;28;113910;-78
2023/09/25 07:16:19;;;;;;;7.13;6.00;;;17.10;64.90;;;;;;5018576;28;114521;-78
2023/09/25 07:18:47;;;;;;;8.30;6.40;;;17.20;64.70;;;;;;5010210;28;114690;-78
2023/09/25 07:21:15;;;;;;;8.90;6.80;;;17.30;64.90;;;;;;5011951;28;114278;-79
2023/09/25 07:23:43;;;;;;;8.48;7.15;;;17.30;64.60;;;;;;5039623;28;114064;-79
2023/09/25 07:26:10;;;;;;;10.15;7.82;;;17.40;64.60;;;;;;5042566;28;115042;-79
2023/09/25 07:28:37;;;;;;;9.68;7.93;;;17.30;64.70;;;;;;5029335;28;114162;-78
2023/09/25 07:31:05;;;;;;;9.35;6.00;;;17.30;65.00;;;;;;5011424;28;114237;-77
2023/09/25 07:33:34;;;;;;;10.40;8.77;;;17.30;64.30;;;;;;5011345;28;114060;-77
2023/09/25 07:36:03;;;;;;;6.63;5.70;;;17.40;65.20;;;;;;5011206;28;114945;-78
2023/09/25 07:38:33;;;;;;;8.30;7.40;;;17.30;64.30;;;;;;4994197;28;116054;-77
2023/09/25 07:41:01;;;;;;;9.45;6.72;;;17.40;65.20;;;;;;5029164;28;114108;-77
2023/09/25 07:43:32;;;;;;;21.85;7.65;;;17.30;64.60;;;;;;5012008;28;114381;-78
2023/09/25 07:46:02;;;;;;;8.70;7.03;;;17.40;64.70;;;;;;4994220;28;115080;-77
2023/09/25 07:48:30;;;;;;;8.52;6.22;;;17.50;64.80;;;;;;5027648;28;116328;-79
2023/09/25 07:50:58;;;;;;;10.18;8.02;;;17.60;64.20;;;;;;5010021;28;114123;-79
2023/09/25 07:53:28;;;;;;;6.30;5.32;;;17.70;64.60;;;;;;5028701;28;114254;-79
2023/09/25 07:55:55;;;;;;;6.82;5.85;;;17.60;63.80;;;;;;4993880;28;114977;-79
2023/09/25 07:58:22;;;;;;;6.90;5.72;;;17.60;64.20;;;;;;5009387;28;115200;-80
2023/09/25 08:00:49;;;;;;;8.57;7.05;;;17.50;64.20;;;;;;5009352;28;114163;-79
2023/09/25 08:03:22;;;;;;;9.30;7.88;;;17.50;64.80;;;;;;5029309;28;114187;-78
2023/09/25 08:05:53;;;;;;;5.82;4.70;;;17.50;65.00;;;;;;5010079;28;116183;-79
2023/09/25 08:08:20;;;;;;;9.02;6.70;;;17.50;64.20;;;;;;5010068;28;114723;-79
2023/09/25 08:10:47;;;;;;;6.88;4.43;;;17.50;65.00;;;;;;5010909;28;114267;-79
2023/09/25 08:13:17;;;;;;;6.13;4.50;;;17.70;63.40;;;;;;5028744;28;114268;-78
2023/09/25 08:15:45;;;;;;;8.30;6.60;;;17.90;62.70;;;;;;5027423;28;115096;-79
2023/09/25 08:18:14;;;;;;;8.70;6.13;;;18.20;63.10;;;;;;5007881;28;114830;-79
2023/09/25 08:20:41;;;;;;;9.07;7.70;;;18.40;62.50;;;;;;5028554;28;114430;-79
2023/09/25 08:23:09;;;;;;;8.32;7.05;;;18.70;62.90;;;;;;5028517;28;114293;-78
2023/09/25 08:25:36;;;;;;;10.65;7.90;;;18.90;61.80;;;;;;4991954;28;115344;-79
2023/09/25 08:28:03;;;;;;;10.80;7.80;;;19.10;61.50;;;;;;5009168;28;115046;-79
2023/09/25 08:30:31;;;;;;;8.80;7.18;;;19.20;61.20;;;;;;5028341;28;114117;-78
2023/09/25 08:32:59;;;;;;;8.13;6.25;;;19.20;60.70;;;;;;5028475;28;114208;-78
2023/09/25 08:35:26;;;;;;;9.68;7.05;;;19.30;60.30;;;;;;5027220;28;114874;-78
2023/09/25 08:37:53;;;;;;;9.45;7.68;;;19.40;60.80;;;;;;4992345;28;118459;-77
2023/09/25 08:40:21;;;;;;;9.35;7.03;;;19.50;61.10;;;;;;5027866;28;114151;-78
2023/09/25 08:42:49;;;;;;;10.10;9.02;;;19.50;60.40;;;;;;5010192;28;114246;-78
2023/09/25 08:45:27;;;;;;;10.07;8.57;;;19.50;60.50;;;;;;5010964;28;114827;-78
2023/09/25 08:47:56;;;;;;;14.27;9.85;;;19.50;60.80;;;;;;5026803;28;114610;-80
2023/09/25 08:50:23;;;;;;;9.40;8.23;;;19.70;61.40;;;;;;4977044;28;114177;-80
2023/09/25 08:52:51;;;;;;;7.28;6.30;;;19.70;60.50;;;;;;5027724;28;114453;-79
2023/09/25 08:55:18;;;;;;;9.63;7.72;;;19.80;59.80;;;;;;5026541;28;117266;-79
2023/09/25 08:57:45;;;;;;;11.13;7.82;;;19.80;60.30;;;;;;5008896;28;115855;-79
2023/09/25 09:00:14;;;;;;;10.00;6.57;;;19.80;60.00;;;;;;5009959;28;114067;-77
2023/09/25 09:02:43;;;;;;;7.25;5.93;;;19.80;59.40;;;;;;5027811;28;114041;-79
2023/09/25 09:05:11;;;;;;;8.82;7.07;;;19.90;58.90;;;;;;5026136;28;114851;-78
2023/09/25 09:07:39;;;;;;;8.80;6.40;;;20.00;59.60;;;;;;5026801;28;114916;-78
2023/09/25 09:10:07;;;;;;;8.95;6.43;;;20.20;59.00;;;;;;5009231;27;114412;-80
2023/09/25 09:12:51;;;;;;;8.70;6.40;;;20.20;58.30;;;;;;5027430;28;114149;-80
2023/09/25 09:15:30;;;;;;;8.33;6.87;;;20.30;59.20;;;;;;5010382;28;114966;-79
2023/09/25 09:17:58;;;;;;;9.32;6.75;;;20.30;58.50;;;;;;5026476;28;114848;-78
2023/09/25 09:20:43;;;;;;;7.45;6.05;;;20.40;58.40;;;;;;5009600;28;114253;-80
2023/09/25 09:23:10;;;;;;;8.50;7.18;;;20.40;58.00;;;;;;4993357;28;114592;-80
2023/09/25 09:25:40;;;;;;;8.38;6.40;;;20.30;58.70;;;;;;5007810;28;115196;-79
2023/09/25 09:28:07;;;;;;;7.38;5.68;;;20.30;58.10;;;;;;5025916;28;114706;-79
2023/09/25 09:30:35;;;;;;;8.20;5.95;;;20.30;57.80;;;;;;5026998;28;114286;-79
2023/09/25 09:33:02;;;;;;;9.63;6.38;;;20.30;57.80;;;;;;4976200;28;114248;-79
2023/09/25 09:35:30;;;;;;;8.63;6.80;;;20.20;58.20;;;;;;5007669;28;117926;-79
2023/09/25 09:37:57;;;;;;;7.43;5.40;;;20.20;59.20;;;;;;5007655;28;114912;-80
2023/09/25 09:40:25;;;;;;;9.25;6.20;;;20.30;58.00;;;;;;5009075;28;114305;-78
2023/09/25 09:42:52;;;;;;;7.60;6.03;;;20.40;59.20;;;;;;4996279;28;114282;-78
2023/09/25 09:45:20;;;;;;;8.65;6.25;;;20.50;58.50;;;;;;5040228;28;114022;-78
2023/09/25 09:47:48;;;;;;;7.45;6.10;;;20.50;58.10;;;;;;5020462;28;114205;-79
2023/09/25 09:50:23;;;;;;;8.70;6.57;;;20.50;58.30;;;;;;5009225;28;114307;-78
2023/09/25 09:52:50;;;;;;;9.23;6.68;;;20.40;58.10;;;;;;4993380;28;114436;-80
2023/09/25 09:55:19;;;;;;;9.60;8.13;;;20.20;58.50;;;;;;5009299;28;114962;-79
2023/09/25 09:57:46;;;;;;;9.57;7.65;;;20.10;59.60;;;;;;5004255;28;114355;-79
2023/09/25 10:00:13;;;;;;;8.48;6.55;;;20.10;60.10;;;;;;5015805;28;114259;-81
2023/09/25 10:02:40;;;;;;;9.70;6.82;;;20.10;59.20;;;;;;5026843;28;114014;-79
2023/09/25 10:05:10;;;;;;;8.10;6.28;;;20.00;59.40;;;;;;5008031;28;114827;-80
2023/09/25 10:08:09;;;;;;;15.75;9.95;;;20.00;59.50;;;;;;4991699;28;114777;-79
2023/09/25 10:10:40;;;;;;;10.63;8.20;;;20.10;59.10;;;;;;5002714;28;114463;-79
2023/09/25 10:13:12;;;;;;;9.43;8.15;;;20.00;59.90;;;;;;4992826;28;114501;-79
2023/09/25 10:15:39;;;;;;;13.27;10.68;;;19.90;60.80;;;;;;4990914;28;116210;-80
2023/09/25 10:18:06;;;;;;;13.68;10.27;;;19.80;60.80;;;;;;5025243;28;114655;-79
2023/09/25 10:20:36;;;;;;;14.07;7.35;;;19.80;60.80;;;;;;5026050;28;114257;-78
2023/09/25 10:23:08;;;;;;;12.70;9.07;;;19.80;60.20;;;;;;5007795;28;114304;-79
2023/09/25 10:25:50;;;;;;;10.75;9.52;;;19.90;60.80;;;;;;4991413;28;114899;-79
2023/09/25 10:28:30;;;;;;;12.77;8.45;;;19.90;61.20;;;;;;5007966;28;114717;-79
2023/09/25 10:30:58;;;;;;;13.52;9.80;;;19.90;60.80;;;;;;4992681;28;114352;-77
2023/09/25 10:33:32;;;;;;;9.05;7.38;;;19.90;61.40;;;;;;5008592;28;114643;-79
2023/09/25 10:36:04;;;;;;;10.07;8.43;;;20.00;59.90;;;;;;5007326;28;115204;-80
2023/09/25 10:38:34;;;;;;;10.13;8.23;;;20.10;60.30;;;;;;4992006;28;114658;-79
2023/09/25 10:41:11;;;;;;;10.10;7.43;;;20.00;60.20;;;;;;5026124;28;114308;-78
2023/09/25 10:43:38;;;;;;;9.07;7.55;;;20.10;59.30;;;;;;5007579;28;114275;-78
2023/09/25 10:46:05;;;;;;;8.45;7.47;;;20.00;59.70;;;;;;4990620;28;114857;-80
2023/09/25 10:48:32;;;;;;;7.60;6.40;;;20.00;60.40;;;;;;5025252;28;114661;-78
2023/09/25 10:51:00;;;;;;;9.10;7.80;;;20.10;59.50;;;;;;5025680;28;114326;-79
2023/09/25 10:53:27;;;;;;;9.18;8.18;;;20.20;60.50;;;;;;5026102;28;114182;-78
2023/09/25 10:55:54;;;;;;;8.13;6.18;;;20.20;60.10;;;;;;5025126;28;114840;-80
2023/09/25 10:58:21;;;;;;;10.65;8.40;;;20.20;59.80;;;;;;5025458;28;114570;-78
2023/09/25 11:00:51;;;;;;;12.30;8.65;;;20.30;61.00;;;;;;5008248;28;114930;-79
2023/09/25 11:03:18;;;;;;;11.10;7.55;;;20.30;59.90;;;;;;5026716;28;114292;-80
2023/09/25 11:05:49;;;;;;;10.35;7.95;;;20.30;60.00;;;;;;5024985;28;114926;-77
2023/09/25 11:08:16;;;;;;;25.30;17.33;;;20.30;60.10;;;;;;5006856;28;114734;-79
2023/09/25 11:10:44;;;;;;;14.30;9.80;;;20.30;60.40;;;;;;4990609;28;114497;-80
2023/09/25 11:13:11;;;;;;;89.82;64.35;;;20.40;60.50;;;;;;5008163;28;114200;-79
2023/09/25 11:15:39;;;;;;;14.10;9.40;;;20.30;59.40;;;;;;4990696;28;117959;-79
2023/09/25 11:18:08;;;;;;;10.77;8.18;;;20.40;58.90;;;;;;5024448;28;114582;-78
2023/09/25 11:20:37;;;;;;;10.98;8.60;;;20.50;60.00;;;;;;5025493;28;114333;-78
2023/09/25 11:23:16;;;;;;;10.13;8.13;;;20.30;60.40;;;;;;5008194;28;114372;-79
2023/09/25 11:25:50;;;;;;;9.73;6.88;;;20.40;60.40;;;;;;5007372;28;115027;-79
2023/09/25 11:28:21;;;;;;;10.05;7.82;;;20.40;60.10;;;;;;5006940;28;114683;-80
2023/09/25 11:30:48;;;;;;;12.10;7.45;;;20.50;61.10;;;;;;5008376;28;114548;-79
2023/09/25 11:33:18;;;;;;;10.48;8.05;;;20.60;61.00;;;;;;5025607;27;114332;-78
2023/09/25 11:35:49;;;;;;;10.55;8.00;;;20.70;60.80;;;;;;5027363;28;116599;-80
2023/09/25 11:38:20;;;;;;;9.35;6.85;;;20.70;61.00;;;;;;5028188;28;114830;-79
2023/09/25 11:40:50;;;;;;;9.05;7.32;;;20.80;59.20;;;;;;5029216;28;114174;-79
2023/09/25 11:43:17;;;;;;;9.38;7.70;;;20.80;60.00;;;;;;5029104;28;114357;-79
2023/09/25 11:45:44;;;;;;;11.50;8.43;;;20.80;59.30;;;;;;5027875;28;114929;-80
2023/09/25 11:48:14;;;;;;;10.77;7.68;;;20.80;59.20;;;;;;5028122;28;115189;-79
2023/09/25 11:50:41;;;;;;;9.75;7.97;;;20.80;59.50;;;;;;5029274;28;114158;-79
2023/09/25 11:53:09;;;;;;;9.77;7.65;;;20.80;58.70;;;;;;5029570;28;114781;-79
2023/09/25 11:55:36;;;;;;;8.57;7.15;;;20.80;60.20;;;;;;5010275;28;115088;-79
2023/09/25 11:58:08;;;;;;;10.10;8.02;;;20.80;59.30;;;;;;4994021;28;114933;-79
2023/09/25 12:00:36;;;;;;;10.53;7.67;;;20.90;60.30;;;;;;5028143;28;114449;-79
2023/09/25 12:03:07;;;;;;;10.25;8.50;;;20.90;59.70;;;;;;5028708;28;114605;-78
2023/09/25 12:05:35;;;;;;;9.65;7.78;;;20.90;60.40;;;;;;5010602;28;115392;-80
2023/09/25 12:08:06;;;;;;;12.07;9.15;;;21.00;60.20;;;;;;5028233;28;114693;-79
2023/09/25 12:10:39;;;;;;;10.93;9.25;;;21.00;60.50;;;;;;5011431;28;114565;-78
2023/09/25 12:13:07;;;;;;;9.68;8.05;;;21.10;60.60;;;;;;5028685;28;114507;-79
2023/09/25 12:15:51;;;;;;;10.88;9.00;;;21.10;60.30;;;;;;5009603;28;116113;-80
2023/09/25 12:18:19;;;;;;;10.82;7.95;;;21.10;60.50;;;;;;5027621;28;115243;-79
2023/09/25 12:20:46;;;;;;;13.23;8.13;;;21.10;59.90;;;;;;5010458;28;114190;-78
2023/09/25 12:23:13;;;;;;;9.73;6.97;;;21.20;60.10;;;;;;5028480;28;114118;-80
2023/09/25 12:25:40;;;;;;;11.65;7.88;;;21.30;59.20;;;;;;5034851;28;114986;-80
2023/09/25 12:28:08;;;;;;;9.23;7.38;;;21.30;59.60;;;;;;5035945;28;114717;-80
2023/09/25 12:30:35;;;;;;;10.68;8.80;;;21.20;59.60;;;;;;5032106;28;114141;-79
2023/09/25 12:33:03;;;;;;;10.40;7.53;;;21.30;60.10;;;;;;5029032;28;114371;-78
2023/09/25 12:35:31;;;;;;;10.98;7.97;;;21.20;59.40;;;;;;5028027;28;115707;-79
2023/09/25 12:37:58;;;;;;;10.32;7.45;;;21.20;58.70;;;;;;5031143;28;115767;-79
2023/09/25 12:40:25;;;;;;;8.43;7.40;;;21.00;58.60;;;;;;5039012;28;113961;-78